sensor_id;sensor_type;location;lat;lon;timestamp;pressure;altitude;pressure_sealevel;temperature;humidity
44697;BME280;57264;47.480;19.354;2023-04-05T00:01:26;99398.16;;;-0.38;56.82
44697;BME280;57264;47.480;19.354;2023-04-05T00:03:54;99393.13;;;-0.40;56.60
44697;BME280;57264;47.480;19.354;2023-04-05T00:06:21;99388.63;;;-0.48;57.93
44697;BME280;57264;47.480;19.354;2023-04-05T00:08:57;99389.88;;;-0.42;56.91
44697;BME280;57264;47.480;19.354;2023-04-05T00:11:28;99389.97;;;-0.53;57.83
44697;BME280;57264;47.480;19.354;2023-04-05T00:13:54;99390.66;;;-0.61;58.10
44697;BME280;57264;47.480;19.354;2023-04-05T00:16:20;99384.66;;;-0.61;58.40
44697;BME280;57264;47.480;19.354;2023-04-05T00:18:46;99381.00;;;-0.59;57.47
44697;BME280;57264;47.480;19.354;2023-04-05T00:21:19;99384.16;;;-0.45;57.31
44697;BME280;57264;47.480;19.354;2023-04-05T00:23:49;99377.75;;;-0.51;57.55
44697;BME280;57264;47.480;19.354;2023-04-05T00:26:16;99373.44;;;-0.51;57.66
44697;BME280;57264;47.480;19.354;2023-04-05T00:28:42;99376.00;;;-0.51;57.23
44697;BME280;57264;47.480;19.354;2023-04-05T00:31:07;99374.09;;;-0.58;57.35
44697;BME280;57264;47.480;19.354;2023-04-05T00:33:33;99371.25;;;-0.55;57.55
44697;BME280;57264;47.480;19.354;2023-04-05T00:36:12;99372.84;;;-0.64;57.71
44697;BME280;57264;47.480;19.354;2023-04-05T00:38:39;99380.16;;;-0.69;58.40
44697;BME280;57264;47.480;19.354;2023-04-05T00:41:05;99379.19;;;-0.68;58.56
44697;BME280;57264;47.480;19.354;2023-04-05T00:43:31;99381.66;;;-0.66;58.49
44697;BME280;57264;47.480;19.354;2023-04-05T00:45:56;99384.88;;;-0.74;58.64
44697;BME280;57264;47.480;19.354;2023-04-05T00:48:22;99378.47;;;-0.79;59.00
44697;BME280;57264;47.480;19.354;2023-04-05T00:50:49;99384.03;;;-0.84;59.37
44697;BME280;57264;47.480;19.354;2023-04-05T00:53:16;99382.16;;;-0.82;59.70
44697;BME280;57264;47.480;19.354;2023-04-05T00:55:43;99383.91;;;-0.82;60.60
44697;BME280;57264;47.480;19.354;2023-04-05T00:58:09;99386.97;;;-0.58;58.44
44697;BME280;57264;47.480;19.354;2023-04-05T01:00:37;99382.03;;;-0.71;58.98
44697;BME280;57264;47.480;19.354;2023-04-05T01:03:05;99383.97;;;-0.73;58.76
44697;BME280;57264;47.480;19.354;2023-04-05T01:05:39;99377.75;;;-0.91;59.58
44697;BME280;57264;47.480;19.354;2023-04-05T01:08:21;99380.78;;;-0.86;59.36
44697;BME280;57264;47.480;19.354;2023-04-05T01:10:59;99372.66;;;-0.81;58.88
44697;BME280;57264;47.480;19.354;2023-04-05T01:13:28;99373.03;;;-0.86;59.21
44697;BME280;57264;47.480;19.354;2023-04-05T01:15:53;99376.72;;;-0.79;58.30
44697;BME280;57264;47.480;19.354;2023-04-05T01:18:19;99371.03;;;-0.82;58.57
44697;BME280;57264;47.480;19.354;2023-04-05T01:23:58;99370.19;;;-0.83;57.67
44697;BME280;57264;47.480;19.354;2023-04-05T01:30:03;99370.63;;;-0.78;57.64
44697;BME280;57264;47.480;19.354;2023-04-05T01:32:53;99365.66;;;-0.70;56.34
44697;BME280;57264;47.480;19.354;2023-04-05T01:37:56;99356.44;;;-0.63;56.00
44697;BME280;57264;47.480;19.354;2023-04-05T01:40:22;99371.75;;;-0.71;56.70
44697;BME280;57264;47.480;19.354;2023-04-05T01:42:48;99375.00;;;-0.69;56.96
44697;BME280;57264;47.480;19.354;2023-04-05T01:45:13;99361.47;;;-0.61;56.31
44697;BME280;57264;47.480;19.354;2023-04-05T01:47:39;99364.81;;;-0.70;56.73
44697;BME280;57264;47.480;19.354;2023-04-05T01:50:05;99362.94;;;-0.68;55.88
44697;BME280;57264;47.480;19.354;2023-04-05T01:52:31;99359.41;;;-0.67;56.49
44697;BME280;57264;47.480;19.354;2023-04-05T01:54:56;99360.75;;;-0.73;56.71
44697;BME280;57264;47.480;19.354;2023-04-05T01:57:22;99353.69;;;-0.80;56.54
44697;BME280;57264;47.480;19.354;2023-04-05T01:59:48;99360.75;;;-0.73;56.07
44697;BME280;57264;47.480;19.354;2023-04-05T02:02:13;99352.03;;;-0.81;55.97
44697;BME280;57264;47.480;19.354;2023-04-05T02:04:39;99359.13;;;-0.74;55.97
44697;BME280;57264;47.480;19.354;2023-04-05T02:07:04;99359.13;;;-0.74;56.15
44697;BME280;57264;47.480;19.354;2023-04-05T02:09:30;99362.09;;;-0.78;55.88
44697;BME280;57264;47.480;19.354;2023-04-05T02:11:55;99353.25;;;-0.76;56.42
44697;BME280;57264;47.480;19.354;2023-04-05T02:14:23;99358.84;;;-0.80;55.90
44697;BME280;57264;47.480;19.354;2023-04-05T02:16:49;99357.31;;;-0.83;56.11
44697;BME280;57264;47.480;19.354;2023-04-05T02:19:15;99353.38;;;-0.87;56.58
44697;BME280;57264;47.480;19.354;2023-04-05T02:21:48;99350.13;;;-0.89;56.46
44697;BME280;57264;47.480;19.354;2023-04-05T02:24:13;99355.28;;;-0.89;56.36
44697;BME280;57264;47.480;19.354;2023-04-05T02:26:39;99356.09;;;-0.88;56.16
44697;BME280;57264;47.480;19.354;2023-04-05T02:29:04;99350.94;;;-0.88;55.91
44697;BME280;57264;47.480;19.354;2023-04-05T02:31:30;99355.41;;;-0.90;56.29
44697;BME280;57264;47.480;19.354;2023-04-05T02:33:55;99355.28;;;-0.89;56.24
44697;BME280;57264;47.480;19.354;2023-04-05T02:36:22;99352.53;;;-0.97;56.61
44697;BME280;57264;47.480;19.354;2023-04-05T02:38:48;99346.94;;;-1.02;56.75
44697;BME280;57264;47.480;19.354;2023-04-05T02:41:14;99355.22;;;-0.99;56.50
44697;BME280;57264;47.480;19.354;2023-04-05T02:43:40;99351.53;;;-1.06;56.40
44697;BME280;57264;47.480;19.354;2023-04-05T02:46:05;99347.28;;;-1.16;56.87
44697;BME280;57264;47.480;19.354;2023-04-05T02:48:31;99357.16;;;-1.21;56.98
44697;BME280;57264;47.480;19.354;2023-04-05T02:50:57;99353.50;;;-1.19;57.30
44697;BME280;57264;47.480;19.354;2023-04-05T02:53:22;99352.03;;;-1.12;56.82
44697;BME280;57264;47.480;19.354;2023-04-05T02:55:52;99348.25;;;-1.17;56.72
44697;BME280;57264;47.480;19.354;2023-04-05T02:58:18;99349.84;;;-1.16;56.35
44697;BME280;57264;47.480;19.354;2023-04-05T03:00:47;99351.47;;;-1.25;57.13
44697;BME280;57264;47.480;19.354;2023-04-05T03:03:21;99349.19;;;-1.39;57.70
44697;BME280;57264;47.480;19.354;2023-04-05T03:05:46;99353.22;;;-1.25;57.00
44697;BME280;57264;47.480;19.354;2023-04-05T03:08:15;99349.13;;;-1.28;57.66
44697;BME280;57264;47.480;19.354;2023-04-05T03:10:45;99356.94;;;-1.39;57.14
44697;BME280;57264;47.480;19.354;2023-04-05T03:13:10;99363.75;;;-1.28;57.10
44697;BME280;57264;47.480;19.354;2023-04-05T03:15:36;99352.47;;;-1.37;57.78
44697;BME280;57264;47.480;19.354;2023-04-05T03:18:01;99356.09;;;-1.39;57.22
44697;BME280;57264;47.480;19.354;2023-04-05T03:20:27;99355.91;;;-1.48;58.15
44697;BME280;57264;47.480;19.354;2023-04-05T03:22:52;99361.69;;;-1.55;58.42
44697;BME280;57264;47.480;19.354;2023-04-05T03:25:18;99365.34;;;-1.58;58.88
44697;BME280;57264;47.480;19.354;2023-04-05T03:27:44;99358.13;;;-1.64;58.60
44697;BME280;57264;47.480;19.354;2023-04-05T03:30:10;99369.19;;;-1.73;59.66
44697;BME280;57264;47.480;19.354;2023-04-05T03:32:36;99369.66;;;-1.79;59.44
44697;BME280;57264;47.480;19.354;2023-04-05T03:35:01;99368.22;;;-1.72;60.00
44697;BME280;57264;47.480;19.354;2023-04-05T03:37:27;99371.03;;;-1.75;59.32
44697;BME280;57264;47.480;19.354;2023-04-05T03:39:52;99371.03;;;-1.75;58.95
44697;BME280;57264;47.480;19.354;2023-04-05T03:42:18;99375.72;;;-1.69;58.89
44697;BME280;57264;47.480;19.354;2023-04-05T03:44:43;99364.53;;;-1.79;59.77
44697;BME280;57264;47.480;19.354;2023-04-05T03:47:09;99362.31;;;-1.83;59.81
44697;BME280;57264;47.480;19.354;2023-04-05T03:49:35;99376.16;;;-1.96;60.36
44697;BME280;57264;47.480;19.354;2023-04-05T03:52:00;99376.38;;;-1.88;59.92
44697;BME280;57264;47.480;19.354;2023-04-05T03:54:26;99379.84;;;-1.77;59.17
44697;BME280;57264;47.480;19.354;2023-04-05T03:56:51;99383.91;;;-1.75;59.61
44697;BME280;57264;47.480;19.354;2023-04-05T03:59:17;99382.41;;;-1.77;59.28
44697;BME280;57264;47.480;19.354;2023-04-05T04:01:42;99386.28;;;-1.83;58.91
44697;BME280;57264;47.480;19.354;2023-04-05T04:04:09;99387.94;;;-1.82;59.38
44697;BME280;57264;47.480;19.354;2023-04-05T04:06:34;99389.38;;;-1.89;59.63
44697;BME280;57264;47.480;19.354;2023-04-05T04:09:02;99383.50;;;-1.91;58.89
44697;BME280;57264;47.480;19.354;2023-04-05T04:11:30;99387.22;;;-2.05;59.61
44697;BME280;57264;47.480;19.354;2023-04-05T04:13:55;99386.59;;;-1.97;60.05
44697;BME280;57264;47.480;19.354;2023-04-05T04:16:21;99392.16;;;-1.92;59.25
44697;BME280;57264;47.480;19.354;2023-04-05T04:18:46;99391.16;;;-2.01;60.29
44697;BME280;57264;47.480;19.354;2023-04-05T04:21:12;99390.81;;;-2.07;60.91
44697;BME280;57264;47.480;19.354;2023-04-05T04:23:41;99389.63;;;-2.03;60.02
44697;BME280;57264;47.480;19.354;2023-04-05T04:26:10;99388.59;;;-2.12;60.99
44697;BME280;57264;47.480;19.354;2023-04-05T04:28:35;99390.72;;;-2.06;60.45
44697;BME280;57264;47.480;19.354;2023-04-05T04:31:04;99395.84;;;-2.06;60.88
44697;BME280;57264;47.480;19.354;2023-04-05T04:33:30;99393.75;;;-2.01;59.62
44697;BME280;57264;47.480;19.354;2023-04-05T04:35:55;99386.75;;;-2.10;60.07
44697;BME280;57264;47.480;19.354;2023-04-05T04:38:21;99387.78;;;-2.01;60.91
44697;BME280;57264;47.480;19.354;2023-04-05T04:40:50;99388.72;;;-2.02;61.24
44697;BME280;57264;47.480;19.354;2023-04-05T04:43:18;99389.88;;;-2.06;60.08
44697;BME280;57264;47.480;19.354;2023-04-05T04:45:48;99393.84;;;-2.02;59.85
44697;BME280;57264;47.480;19.354;2023-04-05T04:48:15;99388.97;;;-2.05;60.41
44697;BME280;57264;47.480;19.354;2023-04-05T04:50:45;99395.25;;;-1.98;61.05
44697;BME280;57264;47.480;19.354;2023-04-05T04:53:11;99398.03;;;-1.90;59.58
44697;BME280;57264;47.480;19.354;2023-04-05T04:55:41;99391.06;;;-2.10;61.99
44697;BME280;57264;47.480;19.354;2023-04-05T04:58:10;99393.50;;;-1.98;61.47
44697;BME280;57264;47.480;19.354;2023-04-05T05:00:41;99404.19;;;-1.93;61.83
44697;BME280;57264;47.480;19.354;2023-04-05T05:03:11;99408.56;;;-1.93;62.35
44697;BME280;57264;47.480;19.354;2023-04-05T05:05:48;99405.59;;;-1.89;62.40
44697;BME280;57264;47.480;19.354;2023-04-05T05:08:14;99416.78;;;-1.78;61.38
44697;BME280;57264;47.480;19.354;2023-04-05T05:10:41;99408.56;;;-1.72;59.48
44697;BME280;57264;47.480;19.354;2023-04-05T05:13:06;99410.16;;;-1.60;60.70
44697;BME280;57264;47.480;19.354;2023-04-05T05:15:32;99407.28;;;-1.46;58.04
44697;BME280;57264;47.480;19.354;2023-04-05T05:17:57;99403.41;;;-1.40;58.37
44697;BME280;57264;47.480;19.354;2023-04-05T05:20:24;99408.22;;;-1.26;56.94
44697;BME280;57264;47.480;19.354;2023-04-05T05:22:53;99408.41;;;-1.18;56.81
44697;BME280;57264;47.480;19.354;2023-04-05T05:25:19;99407.47;;;-1.17;59.51
44697;BME280;57264;47.480;19.354;2023-04-05T05:27:49;99407.50;;;-1.08;59.48
44697;BME280;57264;47.480;19.354;2023-04-05T05:30:15;99411.34;;;-1.02;57.54
44697;BME280;57264;47.480;19.354;2023-04-05T05:32:41;99409.44;;;-1.00;58.74
44697;BME280;57264;47.480;19.354;2023-04-05T05:35:07;99404.97;;;-0.68;56.17
44697;BME280;57264;47.480;19.354;2023-04-05T05:37:33;99404.91;;;-0.57;56.88
44697;BME280;57264;47.480;19.354;2023-04-05T05:39:59;99404.91;;;-0.47;55.55
44697;BME280;57264;47.480;19.354;2023-04-05T05:42:25;99407.28;;;-0.25;56.69
44697;BME280;57264;47.480;19.354;2023-04-05T05:44:51;99408.69;;;-0.02;54.99
44697;BME280;57264;47.480;19.354;2023-04-05T05:47:17;99407.88;;;0.17;54.26
44697;BME280;57264;47.480;19.354;2023-04-05T05:49:43;99403.78;;;0.24;53.56
44697;BME280;57264;47.480;19.354;2023-04-05T05:52:08;99408.00;;;0.54;52.36
44697;BME280;57264;47.480;19.354;2023-04-05T05:54:34;99400.78;;;0.67;53.75
44697;BME280;57264;47.480;19.354;2023-04-05T05:57:00;99412.34;;;0.63;52.97
44697;BME280;57264;47.480;19.354;2023-04-05T05:59:26;99413.09;;;0.92;51.27
44697;BME280;57264;47.480;19.354;2023-04-05T06:01:53;99409.00;;;1.00;52.47
44697;BME280;57264;47.480;19.354;2023-04-05T06:04:19;99411.94;;;1.14;51.37
44697;BME280;57264;47.480;19.354;2023-04-05T06:06:45;99402.94;;;1.28;52.21
44697;BME280;57264;47.480;19.354;2023-04-05T06:09:13;99407.84;;;1.49;48.64
44697;BME280;57264;47.480;19.354;2023-04-05T06:11:40;99405.91;;;1.60;47.85
44697;BME280;57264;47.480;19.354;2023-04-05T06:14:06;99406.50;;;1.45;48.63
44697;BME280;57264;47.480;19.354;2023-04-05T06:16:31;99409.16;;;1.62;49.30
44697;BME280;57264;47.480;19.354;2023-04-05T06:18:57;99409.63;;;1.75;47.39
44697;BME280;57264;47.480;19.354;2023-04-05T06:21:23;99409.75;;;1.74;47.76
44697;BME280;57264;47.480;19.354;2023-04-05T06:23:48;99411.63;;;1.81;46.64
44697;BME280;57264;47.480;19.354;2023-04-05T06:26:18;99412.94;;;1.68;46.96
44697;BME280;57264;47.480;19.354;2023-04-05T06:28:48;99409.75;;;1.74;46.46
44697;BME280;57264;47.480;19.354;2023-04-05T06:31:15;99404.78;;;1.63;47.52
44697;BME280;57264;47.480;19.354;2023-04-05T06:33:42;99405.19;;;1.68;46.16
44697;BME280;57264;47.480;19.354;2023-04-05T06:36:08;99412.94;;;1.68;46.30
44697;BME280;57264;47.480;19.354;2023-04-05T06:38:34;99411.78;;;1.80;46.92
44697;BME280;57264;47.480;19.354;2023-04-05T06:41:01;99411.97;;;1.96;47.32
44697;BME280;57264;47.480;19.354;2023-04-05T06:43:27;99404.44;;;2.20;45.45
44697;BME280;57264;47.480;19.354;2023-04-05T06:45:55;99411.72;;;2.43;44.89
44697;BME280;57264;47.480;19.354;2023-04-05T06:48:21;99412.09;;;2.48;44.74
44697;BME280;57264;47.480;19.354;2023-04-05T06:50:46;99409.91;;;2.61;44.66
44697;BME280;57264;47.480;19.354;2023-04-05T06:53:12;99412.56;;;2.69;43.82
44697;BME280;57264;47.480;19.354;2023-04-05T06:55:48;99421.41;;;2.58;43.67
44697;BME280;57264;47.480;19.354;2023-04-05T06:58:14;99417.94;;;2.50;44.14
44697;BME280;57264;47.480;19.354;2023-04-05T07:00:40;99415.41;;;2.58;43.42
44697;BME280;57264;47.480;19.354;2023-04-05T07:03:06;99408.66;;;2.65;43.25
44697;BME280;57264;47.480;19.354;2023-04-05T07:05:33;99407.38;;;2.69;43.53
44697;BME280;57264;47.480;19.354;2023-04-05T07:07:59;99421.16;;;2.69;42.87
44697;BME280;57264;47.480;19.354;2023-04-05T07:10:26;99413.69;;;2.84;42.60
44697;BME280;57264;47.480;19.354;2023-04-05T07:12:51;99414.31;;;2.86;42.99
44697;BME280;57264;47.480;19.354;2023-04-05T07:15:17;99408.94;;;3.05;42.26
44697;BME280;57264;47.480;19.354;2023-04-05T07:17:42;99409.34;;;3.18;42.47
44697;BME280;57264;47.480;19.354;2023-04-05T07:20:08;99404.44;;;3.49;41.69
44697;BME280;57264;47.480;19.354;2023-04-05T07:22:34;99409.13;;;3.46;41.32
44697;BME280;57264;47.480;19.354;2023-04-05T07:25:00;99413.81;;;3.76;41.17
44697;BME280;57264;47.480;19.354;2023-04-05T07:27:28;99403.88;;;3.29;40.86
44697;BME280;57264;47.480;19.354;2023-04-05T07:29:55;99410.34;;;3.25;40.84
44697;BME280;57264;47.480;19.354;2023-04-05T07:32:21;99404.72;;;3.04;40.54
44697;BME280;57264;47.480;19.354;2023-04-05T07:34:48;99415.47;;;2.66;42.09
44697;BME280;57264;47.480;19.354;2023-04-05T07:37:16;99405.94;;;2.92;43.72
44697;BME280;57264;47.480;19.354;2023-04-05T07:39:43;99411.88;;;3.10;41.63
44697;BME280;57264;47.480;19.354;2023-04-05T07:42:09;99402.47;;;3.09;41.16
44697;BME280;57264;47.480;19.354;2023-04-05T07:44:35;99403.78;;;3.13;41.63
44697;BME280;57264;47.480;19.354;2023-04-05T07:47:00;99409.56;;;3.33;41.62
44697;BME280;57264;47.480;19.354;2023-04-05T07:49:26;99401.72;;;3.17;41.33
44697;BME280;57264;47.480;19.354;2023-04-05T07:51:56;99407.09;;;3.23;41.11
44697;BME280;57264;47.480;19.354;2023-04-05T07:54:22;99396.38;;;3.18;41.02
44697;BME280;57264;47.480;19.354;2023-04-05T07:56:48;99393.03;;;3.34;42.18
44697;BME280;57264;47.480;19.354;2023-04-05T07:59:14;99398.91;;;3.36;41.99
44697;BME280;57264;47.480;19.354;2023-04-05T08:01:40;99406.13;;;3.24;40.79
44697;BME280;57264;47.480;19.354;2023-04-05T08:04:06;99403.50;;;3.16;39.47
44697;BME280;57264;47.480;19.354;2023-04-05T08:06:31;99397.03;;;3.20;40.39
44697;BME280;57264;47.480;19.354;2023-04-05T08:08:57;99394.31;;;3.30;40.43
44697;BME280;57264;47.480;19.354;2023-04-05T08:11:22;99397.81;;;3.55;40.46
44697;BME280;57264;47.480;19.354;2023-04-05T08:13:48;99399.66;;;3.70;40.68
44697;BME280;57264;47.480;19.354;2023-04-05T08:16:14;99398.22;;;3.76;41.61
44697;BME280;57264;47.480;19.354;2023-04-05T08:18:39;99382.97;;;3.89;39.43
44697;BME280;57264;47.480;19.354;2023-04-05T08:21:05;99404.22;;;3.76;39.83
44697;BME280;57264;47.480;19.354;2023-04-05T08:23:31;99385.03;;;3.69;39.97
44697;BME280;57264;47.480;19.354;2023-04-05T08:25:56;99386.91;;;4.01;41.29
44697;BME280;57264;47.480;19.354;2023-04-05T08:28:22;99394.66;;;3.77;39.86
44697;BME280;57264;47.480;19.354;2023-04-05T08:30:52;99400.41;;;4.05;40.96
44697;BME280;57264;47.480;19.354;2023-04-05T08:33:18;99378.63;;;4.06;40.90
44697;BME280;57264;47.480;19.354;2023-04-05T08:35:44;99387.22;;;3.98;40.35
44697;BME280;57264;47.480;19.354;2023-04-05T08:38:09;99380.75;;;4.10;40.48
44697;BME280;57264;47.480;19.354;2023-04-05T08:40:44;99390.34;;;4.10;40.89
44697;BME280;57264;47.480;19.354;2023-04-05T08:43:30;99386.78;;;4.35;39.35
44697;BME280;57264;47.480;19.354;2023-04-05T08:46:00;99383.53;;;4.17;37.81
44697;BME280;57264;47.480;19.354;2023-04-05T08:48:26;99386.63;;;4.37;38.68
44697;BME280;57264;47.480;19.354;2023-04-05T08:50:56;99392.47;;;4.39;39.65
44697;BME280;57264;47.480;19.354;2023-04-05T08:53:21;99379.97;;;4.34;38.05
44697;BME280;57264;47.480;19.354;2023-04-05T08:55:52;99375.56;;;4.35;37.21
44697;BME280;57264;47.480;19.354;2023-04-05T08:58:20;99378.66;;;4.38;37.03
44697;BME280;57264;47.480;19.354;2023-04-05T09:00:46;99384.66;;;4.22;36.74
44697;BME280;57264;47.480;19.354;2023-04-05T09:03:17;99371.66;;;4.14;38.55
44697;BME280;57264;47.480;19.354;2023-04-05T09:05:48;99367.44;;;4.30;39.24
44697;BME280;57264;47.480;19.354;2023-04-05T09:08:15;99381.09;;;4.48;37.18
44697;BME280;57264;47.480;19.354;2023-04-05T09:10:40;99379.94;;;4.58;36.23
44697;BME280;57264;47.480;19.354;2023-04-05T09:13:06;99373.94;;;4.42;35.20
44697;BME280;57264;47.480;19.354;2023-04-05T09:15:36;99380.78;;;4.35;35.53
44697;BME280;57264;47.480;19.354;2023-04-05T09:18:03;99386.63;;;4.29;37.01
44697;BME280;57264;47.480;19.354;2023-04-05T09:20:28;99370.22;;;4.36;38.23
44697;BME280;57264;47.480;19.354;2023-04-05T09:22:55;99366.63;;;4.53;39.16
44697;BME280;57264;47.480;19.354;2023-04-05T09:25:40;99369.22;;;4.61;37.69
44697;BME280;57264;47.480;19.354;2023-04-05T09:28:08;99363.03;;;4.79;35.60
44697;BME280;57264;47.480;19.354;2023-04-05T09:30:34;99371.63;;;4.87;36.99
44697;BME280;57264;47.480;19.354;2023-04-05T09:33:02;99379.78;;;4.84;36.15
44697;BME280;57264;47.480;19.354;2023-04-05T09:35:31;99366.13;;;4.58;37.15
44697;BME280;57264;47.480;19.354;2023-04-05T09:38:02;99367.28;;;4.63;36.86
44697;BME280;57264;47.480;19.354;2023-04-05T09:40:48;99360.63;;;4.77;37.88
44697;BME280;57264;47.480;19.354;2023-04-05T09:43:35;99361.09;;;4.72;36.48
44697;BME280;57264;47.480;19.354;2023-04-05T09:46:01;99368.44;;;4.69;36.51
44697;BME280;57264;47.480;19.354;2023-04-05T09:48:47;99363.00;;;4.95;35.01
44697;BME280;57264;47.480;19.354;2023-04-05T09:51:14;99344.47;;;4.90;36.50
44697;BME280;57264;47.480;19.354;2023-04-05T09:54:15;99350.19;;;4.85;36.17
44697;BME280;57264;47.480;19.354;2023-04-05T09:56:53;99344.16;;;4.93;33.97
44697;BME280;57264;47.480;19.354;2023-04-05T09:59:18;99360.38;;;5.03;35.87
44697;BME280;57264;47.480;19.354;2023-04-05T10:01:44;99363.50;;;4.90;36.22
44697;BME280;57264;47.480;19.354;2023-04-05T10:04:18;99347.22;;;5.04;35.53
44697;BME280;57264;47.480;19.354;2023-04-05T10:06:43;99338.16;;;4.92;35.21
44697;BME280;57264;47.480;19.354;2023-04-05T10:09:10;99345.38;;;5.21;34.06
44697;BME280;57264;47.480;19.354;2023-04-05T10:11:37;99341.41;;;4.86;34.29
44697;BME280;57264;47.480;19.354;2023-04-05T10:14:07;99356.97;;;4.94;34.78
44697;BME280;57264;47.480;19.354;2023-04-05T10:16:44;99343.50;;;4.91;33.95
44697;BME280;57264;47.480;19.354;2023-04-05T10:19:26;99337.16;;;5.01;35.77
44697;BME280;57264;47.480;19.354;2023-04-05T10:21:53;99337.19;;;4.85;34.36
44697;BME280;57264;47.480;19.354;2023-04-05T10:24:38;99336.47;;;5.07;37.27
44697;BME280;57264;47.480;19.354;2023-04-05T10:27:09;99339.03;;;5.15;36.73
44697;BME280;57264;47.480;19.354;2023-04-05T10:29:49;99326.00;;;5.24;35.99
44697;BME280;57264;47.480;19.354;2023-04-05T10:32:32;99333.84;;;5.46;35.68
44697;BME280;57264;47.480;19.354;2023-04-05T10:35:14;99330.69;;;5.59;34.22
44697;BME280;57264;47.480;19.354;2023-04-05T10:37:42;99328.28;;;5.57;34.48
44697;BME280;57264;47.480;19.354;2023-04-05T10:40:13;99327.31;;;5.50;35.18
44697;BME280;57264;47.480;19.354;2023-04-05T10:42:41;99320.63;;;5.56;34.35
44697;BME280;57264;47.480;19.354;2023-04-05T10:45:11;99322.66;;;5.38;33.21
44697;BME280;57264;47.480;19.354;2023-04-05T10:47:42;99324.34;;;5.61;34.18
44697;BME280;57264;47.480;19.354;2023-04-05T10:50:11;99313.81;;;5.55;33.32
44697;BME280;57264;47.480;19.354;2023-04-05T10:52:40;99325.34;;;5.60;31.94
44697;BME280;57264;47.480;19.354;2023-04-05T10:55:08;99311.44;;;5.68;34.93
44697;BME280;57264;47.480;19.354;2023-04-05T10:57:35;99317.88;;;5.80;34.70
44697;BME280;57264;47.480;19.354;2023-04-05T11:00:02;99319.50;;;5.81;33.03
44697;BME280;57264;47.480;19.354;2023-04-05T11:02:28;99317.72;;;5.82;34.35
44697;BME280;57264;47.480;19.354;2023-04-05T11:04:55;99310.59;;;5.76;31.33
44697;BME280;57264;47.480;19.354;2023-04-05T11:07:23;99318.66;;;5.58;32.76
44697;BME280;57264;47.480;19.354;2023-04-05T11:12:17;99322.50;;;5.70;31.59
44697;BME280;57264;47.480;19.354;2023-04-05T11:14:43;99301.47;;;5.49;31.67
44697;BME280;57264;47.480;19.354;2023-04-05T11:17:25;99302.63;;;5.77;33.03
44697;BME280;57264;47.480;19.354;2023-04-05T11:20:02;99305.00;;;5.87;33.71
44697;BME280;57264;47.480;19.354;2023-04-05T11:22:28;99302.81;;;5.68;32.79
44697;BME280;57264;47.480;19.354;2023-04-05T11:24:59;99305.16;;;5.85;32.32
44697;BME280;57264;47.480;19.354;2023-04-05T11:27:36;99313.88;;;6.00;32.63
44697;BME280;57264;47.480;19.354;2023-04-05T11:30:03;99311.94;;;5.94;32.23
44697;BME280;57264;47.480;19.354;2023-04-05T11:32:43;99305.78;;;5.64;31.03
44697;BME280;57264;47.480;19.354;2023-04-05T11:35:16;99300.31;;;5.74;33.01
44697;BME280;57264;47.480;19.354;2023-04-05T11:40:33;99296.38;;;6.09;32.54
44697;BME280;57264;47.480;19.354;2023-04-05T11:45:31;99281.94;;;5.98;31.40
44697;BME280;57264;47.480;19.354;2023-04-05T11:48:05;99290.16;;;6.10;32.87
44697;BME280;57264;47.480;19.354;2023-04-05T11:50:31;99279.22;;;6.15;31.66
44697;BME280;57264;47.480;19.354;2023-04-05T11:53:10;99278.69;;;6.19;30.47
44697;BME280;57264;47.480;19.354;2023-04-05T11:55:37;99273.50;;;5.96;29.46
44697;BME280;57264;47.480;19.354;2023-04-05T11:58:20;99284.09;;;6.18;31.29
44697;BME280;57264;47.480;19.354;2023-04-05T12:00:57;99269.91;;;6.20;29.95
44697;BME280;57264;47.480;19.354;2023-04-05T12:03:23;99276.38;;;6.24;31.48
44697;BME280;57264;47.480;19.354;2023-04-05T12:05:49;99284.13;;;6.32;29.96
44697;BME280;57264;47.480;19.354;2023-04-05T12:08:18;99272.88;;;6.32;31.36
44697;BME280;57264;47.480;19.354;2023-04-05T12:10:55;99273.25;;;6.43;30.91
44697;BME280;57264;47.480;19.354;2023-04-05T12:13:31;99262.38;;;6.54;29.53
44697;BME280;57264;47.480;19.354;2023-04-05T12:15:58;99265.72;;;6.63;28.43
44697;BME280;57264;47.480;19.354;2023-04-05T12:18:25;99275.78;;;6.51;27.94
44697;BME280;57264;47.480;19.354;2023-04-05T12:20:54;99263.72;;;6.50;29.75
44697;BME280;57264;47.480;19.354;2023-04-05T12:23:24;99268.53;;;6.62;28.31
44697;BME280;57264;47.480;19.354;2023-04-05T12:25:50;99269.59;;;6.52;27.20
44697;BME280;57264;47.480;19.354;2023-04-05T12:28:17;99273.44;;;6.42;28.18
44697;BME280;57264;47.480;19.354;2023-04-05T12:30:53;99262.47;;;6.46;27.27
44697;BME280;57264;47.480;19.354;2023-04-05T12:33:32;99264.97;;;6.40;26.82
44697;BME280;57264;47.480;19.354;2023-04-05T12:36:04;99256.72;;;6.36;29.41
44697;BME280;57264;47.480;19.354;2023-04-05T12:38:35;99260.88;;;6.60;30.86
44697;BME280;57264;47.480;19.354;2023-04-05T12:41:02;99255.56;;;6.68;28.83
44697;BME280;57264;47.480;19.354;2023-04-05T12:43:41;99260.50;;;6.63;28.35
44697;BME280;57264;47.480;19.354;2023-04-05T12:46:15;99256.09;;;6.64;28.86
44697;BME280;57264;47.480;19.354;2023-04-05T12:48:41;99257.69;;;6.50;27.53
44697;BME280;57264;47.480;19.354;2023-04-05T12:51:14;99248.28;;;6.49;27.51
44697;BME280;57264;47.480;19.354;2023-04-05T12:53:44;99248.19;;;6.57;28.31
44697;BME280;57264;47.480;19.354;2023-04-05T12:56:11;99246.56;;;6.56;27.00
44697;BME280;57264;47.480;19.354;2023-04-05T12:58:37;99244.75;;;6.71;28.03
44697;BME280;57264;47.480;19.354;2023-04-05T13:01:04;99239.25;;;6.66;27.84
44697;BME280;57264;47.480;19.354;2023-04-05T13:03:30;99240.28;;;6.65;29.21
44697;BME280;57264;47.480;19.354;2023-04-05T13:05:56;99244.16;;;6.69;26.86
44697;BME280;57264;47.480;19.354;2023-04-05T13:08:22;99236.84;;;6.65;28.63
44697;BME280;57264;47.480;19.354;2023-04-05T13:10:49;99239.72;;;6.84;29.83
44697;BME280;57264;47.480;19.354;2023-04-05T13:13:16;99243.75;;;6.87;29.20
44697;BME280;57264;47.480;19.354;2023-04-05T13:15:43;99238.31;;;6.82;29.09
44697;BME280;57264;47.480;19.354;2023-04-05T13:18:08;99231.72;;;6.86;27.91